createdAt,value
2022-09-20T00:01:28.739Z,96.53
2022-09-20T00:03:57.646Z,97.38
2022-09-20T00:06:29.921Z,94.43
2022-09-20T00:08:56.863Z,97.32
2022-09-20T00:11:30.339Z,95.97
2022-09-20T00:13:58.876Z,95.72
2022-09-20T00:16:28.379Z,96.80
2022-09-20T00:18:57.137Z,95.65
2022-09-20T00:21:27.165Z,101.57
2022-09-20T00:23:54.764Z,96.97
2022-09-20T00:26:21.857Z,94.82
2022-09-20T00:28:48.532Z,96.38
2022-09-20T00:31:15.936Z,95.72
2022-09-20T00:34:01.336Z,99.78
2022-09-20T00:36:28.554Z,99.72
2022-09-20T00:39:00.202Z,100.38
2022-09-20T00:41:27.199Z,97.30
2022-09-20T00:43:54.284Z,95.88
2022-09-20T00:46:34.590Z,97.93
2022-09-20T00:49:25.274Z,98.57
2022-09-20T00:51:56.944Z,96.53
2022-09-20T00:54:25.376Z,98.03
2022-09-20T00:56:52.399Z,96.75
2022-09-20T00:59:26.834Z,99.45
2022-09-20T01:01:57.961Z,99.50
2022-09-20T01:04:27.418Z,97.20
2022-09-20T01:06:56.525Z,96.75
2022-09-20T01:09:23.161Z,102.05
2022-09-20T01:11:52.083Z,99.85
2022-09-20T01:14:22.113Z,95.50
2022-09-20T01:16:48.808Z,96.25
2022-09-20T01:19:48.869Z,96.53
2022-09-20T01:22:41.811Z,98.30
2022-09-20T01:25:18.145Z,98.22
2022-09-20T01:27:50.558Z,96.53
2022-09-20T01:30:20.588Z,97.47
2022-09-20T01:33:02.344Z,95.72
2022-09-20T01:35:30.115Z,101.70
2022-09-20T01:38:18.921Z,98.93
2022-09-20T01:41:17.326Z,96.25
2022-09-20T01:43:46.973Z,96.53
2022-09-20T01:46:22.461Z,99.95
2022-09-20T01:48:55.230Z,97.05
2022-09-20T01:51:30.686Z,96.22
2022-09-20T01:53:57.263Z,101.10
2022-09-20T01:56:32.518Z,96.32
2022-09-20T01:59:24.089Z,100.28
2022-09-20T02:01:54.341Z,103.70
2022-09-20T02:04:44.388Z,101.95
2022-09-20T02:07:29.667Z,100.22
2022-09-20T02:10:25.161Z,104.32
2022-09-20T02:13:22.557Z,100.03
2022-09-20T02:16:20.071Z,98.90
2022-09-20T02:19:07.876Z,102.10
2022-09-20T02:21:47.490Z,96.57
2022-09-20T02:24:37.338Z,101.20
2022-09-20T02:27:11.822Z,97.43
2022-09-20T02:29:41.492Z,101.35
2022-09-20T02:32:47.219Z,96.47
2022-09-20T02:35:42.063Z,98.43
2022-09-20T02:38:37.776Z,99.97
2022-09-20T02:41:31.943Z,97.90
2022-09-20T02:44:08.954Z,102.60
2022-09-20T02:46:46.531Z,99.00
2022-09-20T02:49:41.144Z,98.47
2022-09-20T02:52:20.418Z,108.30
2022-09-20T02:55:07.718Z,98.63
2022-09-20T02:58:18.353Z,104.20
2022-09-20T03:01:02.424Z,97.03
2022-09-20T03:03:55.874Z,101.32
2022-09-20T03:06:31.576Z,101.47
2022-09-20T03:09:18.424Z,106.10
2022-09-20T03:12:04.106Z,98.15
2022-09-20T03:14:42.802Z,105.47
2022-09-20T03:17:36.608Z,107.85
2022-09-20T03:20:31.293Z,103.50
2022-09-20T03:23:13.005Z,105.22
2022-09-20T03:26:02.889Z,100.22
2022-09-20T03:28:56.986Z,102.50
2022-09-20T03:32:13.172Z,99.85
2022-09-20T03:34:49.853Z,99.20
2022-09-20T03:37:41.270Z,98.03
2022-09-20T03:40:49.755Z,99.22
2022-09-20T03:43:16.385Z,101.13
2022-09-20T03:45:54.149Z,99.47
2022-09-20T03:48:30.517Z,115.57
2022-09-20T03:51:44.135Z,102.10
2022-09-20T03:54:13.885Z,103.57
2022-09-20T03:57:00.911Z,106.05
2022-09-20T04:00:03.360Z,101.80
2022-09-20T04:02:51.376Z,103.25
2022-09-20T04:05:39.835Z,108.53
2022-09-20T04:08:10.181Z,105.00
2022-09-20T04:11:17.486Z,102.55
2022-09-20T04:14:11.382Z,103.03
2022-09-20T04:16:55.643Z,103.60
2022-09-20T04:19:44.644Z,109.20
2022-09-20T04:22:11.885Z,106.13
2022-09-20T04:24:43.082Z,105.57
2022-09-20T04:27:20.812Z,102.20
2022-09-20T04:29:55.589Z,102.75
2022-09-20T04:32:31.946Z,103.38
2022-09-20T04:35:29.786Z,106.75
2022-09-20T04:37:56.985Z,104.00
2022-09-20T04:40:27.515Z,103.22
2022-09-20T04:43:17.355Z,108.32
2022-09-20T04:45:56.669Z,106.47
2022-09-20T04:49:05.089Z,105.85
2022-09-20T04:52:03.962Z,103.97
2022-09-20T04:55:07.373Z,104.20
2022-09-20T04:57:46.750Z,106.82
2022-09-20T05:00:19.897Z,105.55
2022-09-20T05:03:19.024Z,108.10
2022-09-20T05:06:16.647Z,101.00
2022-09-20T05:09:08.202Z,107.00
2022-09-20T05:12:12.255Z,105.57
2022-09-20T05:14:55.302Z,105.47
2022-09-20T05:17:33.806Z,104.03
2022-09-20T05:20:22.189Z,105.85
2022-09-20T05:22:57.382Z,108.18
2022-09-20T05:25:32.850Z,104.63
2022-09-20T05:28:12.606Z,106.50
2022-09-20T05:30:48.324Z,108.95
2022-09-20T05:33:18.313Z,103.10
2022-09-20T05:35:54.482Z,101.65
2022-09-20T05:38:47.250Z,102.60
2022-09-20T05:41:24.345Z,107.35
2022-09-20T05:44:16.316Z,101.68
2022-09-20T05:47:03.563Z,99.75
2022-09-20T05:50:07.851Z,100.00
2022-09-20T05:52:51.429Z,104.07
2022-09-20T05:55:42.787Z,102.10
2022-09-20T05:58:47.560Z,103.07
2022-09-20T06:01:26.654Z,98.32
2022-09-20T06:03:59.182Z,99.38
2022-09-20T06:06:57.607Z,100.57
2022-09-20T06:09:54.142Z,100.13
2022-09-20T06:12:43.650Z,106.75
2022-09-20T06:15:45.443Z,99.50
2022-09-20T06:18:38.174Z,104.38
2022-09-20T06:21:24.906Z,111.15
2022-09-20T06:23:56.958Z,108.85
2022-09-20T06:26:28.489Z,101.10
2022-09-20T06:29:01.608Z,106.95
2022-09-20T06:31:28.326Z,102.57
2022-09-20T06:34:00.241Z,102.05
2022-09-20T06:36:57.881Z,100.47
2022-09-20T06:39:58.848Z,99.65
2022-09-20T06:42:27.239Z,104.63
2022-09-20T06:44:54.307Z,104.85
2022-09-20T06:47:23.045Z,104.55
2022-09-20T06:49:50.104Z,100.65
2022-09-20T06:52:22.693Z,117.43
2022-09-20T06:54:55.699Z,103.90
2022-09-20T06:57:44.646Z,116.55
2022-09-20T07:00:15.745Z,102.85
2022-09-20T07:02:43.507Z,113.95
2022-09-20T07:05:17.462Z,100.13
2022-09-20T07:07:44.220Z,99.28
2022-09-20T07:10:11.910Z,99.75
2022-09-20T07:12:39.109Z,104.85
2022-09-20T07:15:06.435Z,107.28
2022-09-20T07:17:33.780Z,103.53
2022-09-20T07:20:00.921Z,105.65
2022-09-20T07:22:28.090Z,101.97
2022-09-20T07:24:54.957Z,102.45
2022-09-20T07:27:21.674Z,106.63
2022-09-20T07:29:48.330Z,100.25
2022-09-20T07:32:15.428Z,100.55
2022-09-20T07:34:42.086Z,104.43
2022-09-20T07:37:08.730Z,98.93
2022-09-20T07:39:35.346Z,96.50
2022-09-20T07:42:06.059Z,92.97
2022-09-20T07:44:32.714Z,97.15
2022-09-20T07:47:00.528Z,92.75
2022-09-20T07:49:30.255Z,91.50
2022-09-20T07:51:57.774Z,95.05
2022-09-20T07:54:24.514Z,88.25
2022-09-20T07:56:51.107Z,89.60
2022-09-20T07:59:17.782Z,88.30
2022-09-20T08:01:44.477Z,88.77
2022-09-20T08:04:11.499Z,87.70
2022-09-20T08:06:43.519Z,84.30
2022-09-20T08:09:11.585Z,84.87
2022-09-20T08:11:39.442Z,87.63
2022-09-20T08:14:08.798Z,82.90
2022-09-20T08:16:41.751Z,83.97
2022-09-20T08:19:09.335Z,83.63
2022-09-20T08:21:37.976Z,81.30
2022-09-20T08:24:04.787Z,87.43
2022-09-20T08:26:31.831Z,83.23
2022-09-20T08:28:59.875Z,82.60
2022-09-20T08:31:31.394Z,79.87
2022-09-20T08:33:59.101Z,80.23
2022-09-20T08:36:26.218Z,86.87
2022-09-20T08:41:45.266Z,80.37
2022-09-20T08:44:57.746Z,79.67
2022-09-20T08:47:26.725Z,78.00
2022-09-20T08:49:57.788Z,83.70
2022-09-20T08:52:36.998Z,78.83
2022-09-20T08:55:16.998Z,79.40
2022-09-20T08:57:48.736Z,82.80
2022-09-20T09:00:21.742Z,80.27
2022-09-20T09:02:54.011Z,78.50
2022-09-20T09:05:55.051Z,77.57
2022-09-20T09:08:29.090Z,79.60
2022-09-20T09:11:08.472Z,79.13
2022-09-20T09:13:53.141Z,78.80
2022-09-20T09:16:28.638Z,77.40
2022-09-20T09:19:34.067Z,78.97
2022-09-20T09:22:03.654Z,77.73
2022-09-20T09:24:33.278Z,78.90
2022-09-20T09:27:09.706Z,80.53
2022-09-20T09:29:45.203Z,76.57
2022-09-20T09:32:24.585Z,77.33
2022-09-20T09:34:51.231Z,84.33
2022-09-20T09:37:28.631Z,79.60
2022-09-20T09:40:13.131Z,79.03
2022-09-20T09:42:52.951Z,80.47
2022-09-20T09:45:30.961Z,75.77
2022-09-20T09:47:59.745Z,79.27
2022-09-20T09:50:32.003Z,77.37
2022-09-20T09:53:09.534Z,78.50
2022-09-20T09:56:14.303Z,82.60
2022-09-20T09:59:07.872Z,80.90
2022-09-20T10:01:59.572Z,80.20
2022-09-20T10:04:46.674Z,83.27
2022-09-20T10:07:24.414Z,82.67
2022-09-20T10:10:25.600Z,86.57
2022-09-20T10:13:19.955Z,86.07
2022-09-20T10:16:29.259Z,87.00
2022-09-20T10:19:10.670Z,88.45
2022-09-20T10:22:18.405Z,91.10
2022-09-20T10:25:20.406Z,91.65
2022-09-20T10:28:15.777Z,91.35
2022-09-20T10:31:11.867Z,94.93
2022-09-20T10:34:11.595Z,93.50
2022-09-20T10:36:58.293Z,94.18
2022-09-20T10:39:36.390Z,91.53
2022-09-20T10:42:37.702Z,90.88
2022-09-20T10:45:42.120Z,91.60
2022-09-20T10:48:27.306Z,89.32
2022-09-20T10:51:01.919Z,90.68
2022-09-20T10:53:38.266Z,90.05
2022-09-20T10:56:28.567Z,90.78
2022-09-20T10:59:27.046Z,93.10
2022-09-20T11:02:18.372Z,91.20
2022-09-20T11:05:18.983Z,92.80
2022-09-20T11:08:12.986Z,91.75
2022-09-20T11:10:46.230Z,89.60
2022-09-20T11:13:27.478Z,91.28
2022-09-20T11:16:05.646Z,96.80
2022-09-20T11:18:58.867Z,93.30
2022-09-20T11:22:06.066Z,91.50
2022-09-20T11:24:35.316Z,91.25
2022-09-20T11:27:13.114Z,92.88
2022-09-20T11:30:01.956Z,91.57
2022-09-20T11:32:44.698Z,94.53
2022-09-20T11:35:11.266Z,95.07
2022-09-20T11:37:43.269Z,91.95
2022-09-20T11:40:41.062Z,91.32
2022-09-20T11:43:10.439Z,89.05
2022-09-20T11:45:40.329Z,92.53
2022-09-20T11:48:09.791Z,90.70
2022-09-20T11:51:02.324Z,89.57
2022-09-20T11:53:46.722Z,90.32
2022-09-20T11:56:25.668Z,90.55
2022-09-20T11:58:58.952Z,93.43
2022-09-20T12:01:42.612Z,89.07
2022-09-20T12:04:32.940Z,90.93
2022-09-20T12:07:24.388Z,89.97
2022-09-20T12:09:59.042Z,91.30
2022-09-20T12:12:35.348Z,90.82
2022-09-20T12:15:05.993Z,94.53
2022-09-20T12:17:47.420Z,94.60
2022-09-20T12:20:32.897Z,89.70
2022-09-20T12:23:37.659Z,90.50
2022-09-20T12:26:13.986Z,87.50
2022-09-20T12:28:49.312Z,87.80
2022-09-20T12:31:18.957Z,87.28
2022-09-20T12:34:03.381Z,86.17
2022-09-20T12:36:34.202Z,86.33
2022-09-20T12:39:20.431Z,85.47
2022-09-20T12:41:54.503Z,90.27
2022-09-20T12:44:29.932Z,86.27
2022-09-20T12:47:11.504Z,87.28
2022-09-20T12:50:05.814Z,87.03
2022-09-20T12:52:50.671Z,86.87
2022-09-20T12:55:32.181Z,83.93
2022-09-20T12:58:04.127Z,85.37
2022-09-20T13:00:45.195Z,87.65
2022-09-20T13:03:23.809Z,88.80
2022-09-20T13:06:17.403Z,86.55
2022-09-20T13:09:05.154Z,88.13
2022-09-20T13:11:47.431Z,89.18
2022-09-20T13:14:20.063Z,88.65
2022-09-20T13:16:47.327Z,90.63
2022-09-20T13:19:29.687Z,92.43
2022-09-20T13:22:22.716Z,88.03
2022-09-20T13:24:55.038Z,94.55
2022-09-20T13:27:27.415Z,88.47
2022-09-20T13:29:54.056Z,89.15
2022-09-20T13:32:31.647Z,92.07
2022-09-20T13:35:10.152Z,91.50
2022-09-20T13:37:50.106Z,90.47
2022-09-20T13:40:38.846Z,91.55
2022-09-20T13:43:25.183Z,95.85
2022-09-20T13:46:00.432Z,96.18
2022-09-20T13:48:28.749Z,90.72
2022-09-20T13:50:58.400Z,91.38
2022-09-20T13:53:42.625Z,94.15
2022-09-20T13:56:22.918Z,91.63
2022-09-20T13:58:50.937Z,96.40
2022-09-20T14:01:29.922Z,94.47
2022-09-20T14:04:17.227Z,90.75
2022-09-20T14:06:45.022Z,88.93
2022-09-20T14:09:23.785Z,98.55
2022-09-20T14:11:50.711Z,89.28
2022-09-20T14:14:22.210Z,91.93
2022-09-20T14:16:50.474Z,90.63
2022-09-20T14:19:20.893Z,92.25
2022-09-20T14:21:48.716Z,89.95
2022-09-20T14:24:30.380Z,90.47
2022-09-20T14:27:03.483Z,93.43
2022-09-20T14:29:42.116Z,90.90
2022-09-20T14:32:18.064Z,91.50
2022-09-20T14:35:07.605Z,91.07
2022-09-20T14:37:54.905Z,103.25
2022-09-20T14:40:27.326Z,93.10
2022-09-20T14:42:55.276Z,89.25
2022-09-20T14:45:23.290Z,89.45
2022-09-20T14:48:27.077Z,89.38
2022-09-20T14:51:26.603Z,89.82
2022-09-20T14:54:13.485Z,89.53
2022-09-20T14:56:47.928Z,92.10
2022-09-20T14:59:14.494Z,86.35
2022-09-20T15:01:59.406Z,89.75
2022-09-20T15:04:28.007Z,90.13
2022-09-20T15:06:56.411Z,89.28
2022-09-20T15:09:23.167Z,90.63
2022-09-20T15:12:04.245Z,91.38
2022-09-20T15:14:36.483Z,90.05
2022-09-20T15:17:04.411Z,93.20
2022-09-20T15:19:31.019Z,92.05
2022-09-20T15:21:57.812Z,89.25
2022-09-20T15:24:24.614Z,90.07
2022-09-20T15:26:51.235Z,90.13
2022-09-20T15:29:18.179Z,94.28
2022-09-20T15:31:46.945Z,92.65
2022-09-20T15:34:14.581Z,91.80
2022-09-20T15:36:42.166Z,92.38
2022-09-20T15:39:09.229Z,89.72
2022-09-20T15:41:36.127Z,90.63
2022-09-20T15:44:04.453Z,91.32
2022-09-20T15:46:32.116Z,90.03
2022-09-20T15:49:04.610Z,96.55
2022-09-20T15:51:31.297Z,92.45
2022-09-20T15:54:00.546Z,90.55
2022-09-20T15:56:28.558Z,90.95
2022-09-20T15:59:01.608Z,90.25
2022-09-20T16:01:32.322Z,90.93
2022-09-20T16:03:59.883Z,91.63
2022-09-20T16:06:26.801Z,89.78
2022-09-20T16:08:53.547Z,90.63
2022-09-20T16:11:22.932Z,90.53
2022-09-20T16:13:54.245Z,89.82
2022-09-20T16:16:21.460Z,91.85
2022-09-20T16:19:06.920Z,91.30
2022-09-20T16:21:33.782Z,90.97
2022-09-20T16:24:01.458Z,93.15
2022-09-20T16:26:29.296Z,90.10
2022-09-20T16:28:56.011Z,90.78
2022-09-20T16:31:48.902Z,92.63
2022-09-20T16:34:19.231Z,90.13
2022-09-20T16:36:50.875Z,91.45
2022-09-20T16:39:18.570Z,90.03
2022-09-20T16:41:49.134Z,89.53
2022-09-20T16:44:16.004Z,90.72
2022-09-20T16:46:45.155Z,91.20
2022-09-20T16:49:13.432Z,90.88
2022-09-20T16:51:42.477Z,91.82
2022-09-20T16:54:12.365Z,92.75
2022-09-20T16:56:41.870Z,90.93
2022-09-20T16:59:09.194Z,92.80
2022-09-20T17:01:36.953Z,97.10
2022-09-20T17:04:05.469Z,92.72
2022-09-20T17:06:34.424Z,93.80
2022-09-20T17:09:01.245Z,91.72
2022-09-20T17:11:30.342Z,93.07
2022-09-20T17:13:57.945Z,92.05
2022-09-20T17:16:30.279Z,92.35
2022-09-20T17:18:58.326Z,93.95
2022-09-20T17:21:26.798Z,94.22
2022-09-20T17:23:55.689Z,92.68
2022-09-20T17:26:25.681Z,92.13
2022-09-20T17:28:56.397Z,94.05
2022-09-20T17:31:30.251Z,93.80
2022-09-20T17:34:00.041Z,96.65
2022-09-20T17:36:32.622Z,93.15
2022-09-20T17:39:04.204Z,94.00
2022-09-20T17:41:33.633Z,98.63
2022-09-20T17:44:02.639Z,94.80
2022-09-20T17:46:31.735Z,99.15
2022-09-20T17:49:01.225Z,96.18
2022-09-20T17:51:39.131Z,94.68
2022-09-20T17:54:06.706Z,94.35
2022-09-20T17:56:34.525Z,100.47
2022-09-20T17:59:03.691Z,95.13
2022-09-20T18:01:32.773Z,92.88
2022-09-20T18:04:01.119Z,94.63
2022-09-20T18:06:40.898Z,95.20
2022-09-20T18:09:09.888Z,96.03
2022-09-20T18:11:40.634Z,94.50
2022-09-20T18:14:10.346Z,93.00
2022-09-20T18:16:38.695Z,94.18
2022-09-20T18:19:06.793Z,93.97
2022-09-20T18:21:36.005Z,93.65
2022-09-20T18:24:05.826Z,94.47
2022-09-20T18:26:33.619Z,98.07
2022-09-20T18:29:12.366Z,96.35
2022-09-20T18:31:42.929Z,95.10
2022-09-20T18:34:17.711Z,102.95
2022-09-20T18:36:48.268Z,98.88
2022-09-20T18:39:14.906Z,96.18
2022-09-20T18:41:42.723Z,100.70
2022-09-20T18:44:14.102Z,98.55
2022-09-20T18:46:41.565Z,94.72
2022-09-20T18:49:09.528Z,96.82
2022-09-20T18:51:39.646Z,96.32
2022-09-20T18:54:09.841Z,96.03
2022-09-20T18:56:38.593Z,94.88
2022-09-20T18:59:07.814Z,99.40
2022-09-20T19:01:55.214Z,95.57
2022-09-20T19:04:49.636Z,97.32
2022-09-20T19:07:27.822Z,97.15
2022-09-20T19:10:06.323Z,94.28
2022-09-20T19:12:48.431Z,93.80
2022-09-20T19:15:21.407Z,93.68
2022-09-20T19:18:03.460Z,95.22
2022-09-20T19:20:58.445Z,94.47
2022-09-20T19:24:03.496Z,96.80
2022-09-20T19:26:32.366Z,101.10
2022-09-20T19:29:00.570Z,98.68
2022-09-20T19:31:30.603Z,105.22
2022-09-20T19:33:59.759Z,98.88
2022-09-20T19:36:40.515Z,96.75
2022-09-20T19:39:25.157Z,97.65
2022-09-20T19:42:07.678Z,93.63
2022-09-20T19:45:16.022Z,95.97
2022-09-20T19:48:03.843Z,99.88
2022-09-20T19:50:46.442Z,96.20
2022-09-20T19:53:15.081Z,98.03
2022-09-20T19:55:47.159Z,93.78
2022-09-20T19:58:15.043Z,96.28
2022-09-20T20:00:45.913Z,94.43
2022-09-20T20:03:13.953Z,95.35
2022-09-20T20:05:48.194Z,95.05
2022-09-20T20:08:21.302Z,107.95
2022-09-20T20:11:11.630Z,99.20
2022-09-20T20:14:03.427Z,97.07
2022-09-20T20:16:54.667Z,96.45
2022-09-20T20:19:50.615Z,96.47
2022-09-20T20:22:41.862Z,97.70
2022-09-20T20:25:47.033Z,95.45
2022-09-20T20:28:14.051Z,98.45
2022-09-20T20:30:40.821Z,99.20
2022-09-20T20:33:08.057Z,96.18
2022-09-20T20:35:34.757Z,98.57
2022-09-20T20:38:01.414Z,98.63
2022-09-20T20:40:28.321Z,97.97
2022-09-20T20:43:01.933Z,99.70
2022-09-20T20:45:29.826Z,97.55
2022-09-20T20:47:58.542Z,95.47
2022-09-20T20:50:26.923Z,105.35
2022-09-20T20:52:54.897Z,97.35
2022-09-20T20:55:21.814Z,101.00
2022-09-20T20:57:58.163Z,99.20
2022-09-20T21:00:26.241Z,100.03
2022-09-20T21:03:00.152Z,98.15
2022-09-20T21:05:28.150Z,99.05
2022-09-20T21:07:55.082Z,96.45
2022-09-20T21:10:22.158Z,110.13
2022-09-20T21:12:53.078Z,100.00
2022-09-20T21:15:19.941Z,101.15
2022-09-20T21:17:53.555Z,100.80
2022-09-20T21:20:21.380Z,95.55
2022-09-20T21:22:48.025Z,99.10
2022-09-20T21:25:14.705Z,96.15
2022-09-20T21:27:42.091Z,95.00
2022-09-20T21:30:09.191Z,98.35
2022-09-20T21:32:36.554Z,94.68
2022-09-20T21:35:03.320Z,94.32
2022-09-20T21:37:30.489Z,98.28
2022-09-20T21:39:57.109Z,96.50
2022-09-20T21:42:25.428Z,96.15
2022-09-20T21:44:52.929Z,97.30
2022-09-20T21:47:20.553Z,98.63
2022-09-20T21:49:47.647Z,99.03
2022-09-20T21:52:14.629Z,95.25
2022-09-20T21:54:42.256Z,98.00
2022-09-20T21:57:12.588Z,100.60
2022-09-20T21:59:39.286Z,95.45
2022-09-20T22:02:05.987Z,95.53
2022-09-20T22:04:32.670Z,95.57
2022-09-20T22:06:59.528Z,96.95
2022-09-20T22:09:26.151Z,96.65
2022-09-20T22:11:52.842Z,97.28
2022-09-20T22:14:19.633Z,96.95
2022-09-20T22:16:48.642Z,95.43
2022-09-20T22:19:17.503Z,96.75
2022-09-20T22:21:46.666Z,97.10
2022-09-20T22:24:14.774Z,96.22
2022-09-20T22:26:43.611Z,96.45
2022-09-20T22:29:10.533Z,95.43
2022-09-20T22:31:44.679Z,96.05
2022-09-20T22:34:20.750Z,95.15
2022-09-20T22:36:47.702Z,96.05
2022-09-20T22:39:15.117Z,98.18
2022-09-20T22:41:42.583Z,100.10
2022-09-20T22:44:10.295Z,95.57
2022-09-20T22:46:38.175Z,99.05
2022-09-20T22:49:06.009Z,95.55
2022-09-20T22:51:33.535Z,101.38
2022-09-20T22:54:04.110Z,96.72
2022-09-20T22:56:31.598Z,97.95
2022-09-20T22:59:00.310Z,96.43
2022-09-20T23:01:32.412Z,95.63
2022-09-20T23:04:04.258Z,95.88
2022-09-20T23:06:34.059Z,95.25
2022-09-20T23:09:02.206Z,99.30
2022-09-20T23:11:29.277Z,98.45
2022-09-20T23:13:58.788Z,95.93
2022-09-20T23:16:30.277Z,96.22
2022-09-20T23:18:58.485Z,97.65
2022-09-20T23:21:25.192Z,95.88
2022-09-20T23:23:57.802Z,96.50
2022-09-20T23:26:25.608Z,96.05
2022-09-20T23:28:55.344Z,96.45
2022-09-20T23:31:22.284Z,100.80
2022-09-20T23:33:50.463Z,101.68
2022-09-20T23:36:18.089Z,97.22
2022-09-20T23:38:45.500Z,97.07
2022-09-20T23:41:14.243Z,95.70
2022-09-20T23:43:41.916Z,101.35
2022-09-20T23:46:10.112Z,95.88
2022-09-20T23:48:37.725Z,99.88
2022-09-20T23:51:05.618Z,97.05
2022-09-20T23:53:32.796Z,96.82
2022-09-20T23:56:00.104Z,99.68
2022-09-20T23:58:26.790Z,98.85
